sensor_id;sensor_type;location;lat;lon;timestamp;P1;durP1;ratioP1;P2;durP2;ratioP2
13083;SDS011;6608;48.790;9.198;2023-08-31T00:02:23;135.03;;;61.50;;
13083;SDS011;6608;48.790;9.198;2023-08-31T00:04:51;136.07;;;62.20;;
13083;SDS011;6608;48.790;9.198;2023-08-31T00:07:17;136.17;;;62.47;;
13083;SDS011;6608;48.790;9.198;2023-08-31T00:09:43;137.27;;;62.47;;
13083;SDS011;6608;48.790;9.198;2023-08-31T00:12:10;134.33;;;61.83;;
13083;SDS011;6608;48.790;9.198;2023-08-31T00:14:36;134.17;;;61.67;;
13083;SDS011;6608;48.790;9.198;2023-08-31T00:17:04;135.33;;;61.97;;
13083;SDS011;6608;48.790;9.198;2023-08-31T00:19:31;134.90;;;62.10;;
13083;SDS011;6608;48.790;9.198;2023-08-31T00:21:58;134.53;;;60.97;;
13083;SDS011;6608;48.790;9.198;2023-08-31T00:24:24;134.53;;;61.53;;
13083;SDS011;6608;48.790;9.198;2023-08-31T00:26:55;136.20;;;62.67;;
13083;SDS011;6608;48.790;9.198;2023-08-31T00:29:21;133.43;;;60.83;;
13083;SDS011;6608;48.790;9.198;2023-08-31T00:31:48;135.87;;;62.50;;
13083;SDS011;6608;48.790;9.198;2023-08-31T00:34:16;134.43;;;61.63;;
13083;SDS011;6608;48.790;9.198;2023-08-31T00:36:44;134.10;;;61.57;;
13083;SDS011;6608;48.790;9.198;2023-08-31T00:39:10;133.63;;;61.83;;
13083;SDS011;6608;48.790;9.198;2023-08-31T00:41:37;137.20;;;61.23;;
13083;SDS011;6608;48.790;9.198;2023-08-31T00:44:04;133.87;;;61.70;;
13083;SDS011;6608;48.790;9.198;2023-08-31T00:46:31;135.07;;;61.77;;
13083;SDS011;6608;48.790;9.198;2023-08-31T00:48:57;133.03;;;61.30;;
13083;SDS011;6608;48.790;9.198;2023-08-31T00:51:24;133.97;;;61.27;;
13083;SDS011;6608;48.790;9.198;2023-08-31T00:53:52;137.13;;;61.97;;
13083;SDS011;6608;48.790;9.198;2023-08-31T00:56:19;134.93;;;61.63;;
13083;SDS011;6608;48.790;9.198;2023-08-31T00:58:46;130.27;;;59.03;;
13083;SDS011;6608;48.790;9.198;2023-08-31T01:01:14;133.90;;;61.47;;
13083;SDS011;6608;48.790;9.198;2023-08-31T01:03:43;135.93;;;61.83;;
13083;SDS011;6608;48.790;9.198;2023-08-31T01:06:15;133.23;;;61.40;;
13083;SDS011;6608;48.790;9.198;2023-08-31T01:08:47;132.63;;;61.07;;
13083;SDS011;6608;48.790;9.198;2023-08-31T01:11:18;135.27;;;61.37;;
13083;SDS011;6608;48.790;9.198;2023-08-31T01:13:49;131.60;;;60.23;;
13083;SDS011;6608;48.790;9.198;2023-08-31T01:16:17;132.40;;;61.03;;
13083;SDS011;6608;48.790;9.198;2023-08-31T01:18:45;133.97;;;61.20;;
13083;SDS011;6608;48.790;9.198;2023-08-31T01:21:16;133.90;;;61.67;;
13083;SDS011;6608;48.790;9.198;2023-08-31T01:23:49;134.63;;;61.90;;
13083;SDS011;6608;48.790;9.198;2023-08-31T01:26:16;132.20;;;61.17;;
13083;SDS011;6608;48.790;9.198;2023-08-31T01:28:43;136.17;;;62.00;;
13083;SDS011;6608;48.790;9.198;2023-08-31T01:31:09;133.03;;;61.83;;
13083;SDS011;6608;48.790;9.198;2023-08-31T01:33:36;132.97;;;61.07;;
13083;SDS011;6608;48.790;9.198;2023-08-31T01:36:03;133.07;;;61.13;;
13083;SDS011;6608;48.790;9.198;2023-08-31T01:38:31;131.97;;;60.67;;
13083;SDS011;6608;48.790;9.198;2023-08-31T01:41:03;135.20;;;61.50;;
13083;SDS011;6608;48.790;9.198;2023-08-31T01:43:31;133.70;;;61.40;;
13083;SDS011;6608;48.790;9.198;2023-08-31T01:45:58;131.80;;;61.07;;
13083;SDS011;6608;48.790;9.198;2023-08-31T01:48:25;133.03;;;62.10;;
13083;SDS011;6608;48.790;9.198;2023-08-31T01:50:51;135.20;;;61.37;;
13083;SDS011;6608;48.790;9.198;2023-08-31T01:53:18;132.20;;;60.80;;
13083;SDS011;6608;48.790;9.198;2023-08-31T01:55:44;132.03;;;60.70;;
13083;SDS011;6608;48.790;9.198;2023-08-31T01:58:12;134.93;;;60.90;;
13083;SDS011;6608;48.790;9.198;2023-08-31T02:00:38;132.80;;;61.63;;
13083;SDS011;6608;48.790;9.198;2023-08-31T02:03:05;132.40;;;61.50;;
13083;SDS011;6608;48.790;9.198;2023-08-31T02:05:33;132.73;;;60.73;;
13083;SDS011;6608;48.790;9.198;2023-08-31T02:07:59;132.63;;;60.83;;
13083;SDS011;6608;48.790;9.198;2023-08-31T02:10:26;132.50;;;61.47;;
13083;SDS011;6608;48.790;9.198;2023-08-31T02:12:54;134.03;;;60.50;;
13083;SDS011;6608;48.790;9.198;2023-08-31T02:15:22;133.87;;;61.67;;
13083;SDS011;6608;48.790;9.198;2023-08-31T02:17:49;132.80;;;61.23;;
13083;SDS011;6608;48.790;9.198;2023-08-31T02:20:15;131.53;;;60.73;;
13083;SDS011;6608;48.790;9.198;2023-08-31T02:22:41;131.17;;;60.67;;
13083;SDS011;6608;48.790;9.198;2023-08-31T02:25:08;131.30;;;60.67;;
13083;SDS011;6608;48.790;9.198;2023-08-31T02:27:34;134.33;;;61.47;;
13083;SDS011;6608;48.790;9.198;2023-08-31T02:30:01;132.03;;;60.53;;
13083;SDS011;6608;48.790;9.198;2023-08-31T02:32:31;134.47;;;61.47;;
13083;SDS011;6608;48.790;9.198;2023-08-31T02:34:58;129.90;;;60.07;;
13083;SDS011;6608;48.790;9.198;2023-08-31T02:37:24;131.27;;;60.60;;
13083;SDS011;6608;48.790;9.198;2023-08-31T02:39:51;133.93;;;60.53;;
13083;SDS011;6608;48.790;9.198;2023-08-31T02:42:17;132.70;;;60.77;;
13083;SDS011;6608;48.790;9.198;2023-08-31T02:44:43;130.77;;;59.90;;
13083;SDS011;6608;48.790;9.198;2023-08-31T02:47:10;132.67;;;61.07;;
13083;SDS011;6608;48.790;9.198;2023-08-31T02:49:37;132.23;;;61.40;;
13083;SDS011;6608;48.790;9.198;2023-08-31T02:52:04;129.97;;;59.03;;
13083;SDS011;6608;48.790;9.198;2023-08-31T02:54:31;133.33;;;61.80;;
13083;SDS011;6608;48.790;9.198;2023-08-31T02:56:57;132.47;;;60.40;;
13083;SDS011;6608;48.790;9.198;2023-08-31T02:59:23;135.10;;;61.50;;
13083;SDS011;6608;48.790;9.198;2023-08-31T03:01:50;132.00;;;60.87;;
13083;SDS011;6608;48.790;9.198;2023-08-31T03:04:16;131.27;;;60.57;;
13083;SDS011;6608;48.790;9.198;2023-08-31T03:06:45;134.77;;;61.57;;
13083;SDS011;6608;48.790;9.198;2023-08-31T03:09:11;131.10;;;60.47;;
13083;SDS011;6608;48.790;9.198;2023-08-31T03:11:38;131.60;;;61.40;;
13083;SDS011;6608;48.790;9.198;2023-08-31T03:14:04;132.97;;;61.50;;
13083;SDS011;6608;48.790;9.198;2023-08-31T03:16:31;132.40;;;60.90;;
13083;SDS011;6608;48.790;9.198;2023-08-31T03:18:57;131.87;;;60.20;;
13083;SDS011;6608;48.790;9.198;2023-08-31T03:21:24;131.97;;;60.90;;
13083;SDS011;6608;48.790;9.198;2023-08-31T03:23:52;131.50;;;60.37;;
13083;SDS011;6608;48.790;9.198;2023-08-31T03:26:18;131.50;;;60.97;;
13083;SDS011;6608;48.790;9.198;2023-08-31T03:28:44;137.37;;;61.43;;
13083;SDS011;6608;48.790;9.198;2023-08-31T03:31:11;132.57;;;60.37;;
13083;SDS011;6608;48.790;9.198;2023-08-31T03:33:37;133.37;;;61.50;;
13083;SDS011;6608;48.790;9.198;2023-08-31T03:36:04;130.47;;;60.07;;
13083;SDS011;6608;48.790;9.198;2023-08-31T03:38:30;131.57;;;60.37;;
13083;SDS011;6608;48.790;9.198;2023-08-31T03:40:58;131.67;;;60.60;;
13083;SDS011;6608;48.790;9.198;2023-08-31T03:43:25;130.50;;;60.27;;
13083;SDS011;6608;48.790;9.198;2023-08-31T03:45:53;132.90;;;60.93;;
13083;SDS011;6608;48.790;9.198;2023-08-31T03:48:20;129.93;;;59.93;;
13083;SDS011;6608;48.790;9.198;2023-08-31T03:50:48;134.23;;;60.40;;
13083;SDS011;6608;48.790;9.198;2023-08-31T03:53:14;131.17;;;60.00;;
13083;SDS011;6608;48.790;9.198;2023-08-31T03:55:41;132.23;;;60.40;;
13083;SDS011;6608;48.790;9.198;2023-08-31T03:58:09;130.70;;;60.40;;
13083;SDS011;6608;48.790;9.198;2023-08-31T04:00:36;133.20;;;61.17;;
13083;SDS011;6608;48.790;9.198;2023-08-31T04:03:02;132.17;;;60.30;;
13083;SDS011;6608;48.790;9.198;2023-08-31T04:05:31;132.67;;;60.53;;
13083;SDS011;6608;48.790;9.198;2023-08-31T04:07:58;131.50;;;60.73;;
13083;SDS011;6608;48.790;9.198;2023-08-31T04:10:24;134.83;;;60.90;;
13083;SDS011;6608;48.790;9.198;2023-08-31T04:12:51;132.07;;;59.97;;
13083;SDS011;6608;48.790;9.198;2023-08-31T04:15:19;129.77;;;60.47;;
13083;SDS011;6608;48.790;9.198;2023-08-31T04:17:45;131.20;;;60.73;;
13083;SDS011;6608;48.790;9.198;2023-08-31T04:20:12;132.57;;;61.23;;
13083;SDS011;6608;48.790;9.198;2023-08-31T04:22:39;133.03;;;60.43;;
13083;SDS011;6608;48.790;9.198;2023-08-31T04:25:05;130.50;;;60.47;;
13083;SDS011;6608;48.790;9.198;2023-08-31T04:27:32;133.53;;;60.47;;
13083;SDS011;6608;48.790;9.198;2023-08-31T04:29:58;131.67;;;60.37;;
13083;SDS011;6608;48.790;9.198;2023-08-31T04:32:26;134.80;;;60.80;;
13083;SDS011;6608;48.790;9.198;2023-08-31T04:34:53;132.83;;;61.20;;
13083;SDS011;6608;48.790;9.198;2023-08-31T04:37:20;131.17;;;61.00;;
13083;SDS011;6608;48.790;9.198;2023-08-31T04:39:47;132.40;;;62.50;;
13083;SDS011;6608;48.790;9.198;2023-08-31T04:42:13;131.83;;;61.87;;
13083;SDS011;6608;48.790;9.198;2023-08-31T04:44:41;133.73;;;63.00;;
13083;SDS011;6608;48.790;9.198;2023-08-31T04:47:08;131.03;;;60.77;;
13083;SDS011;6608;48.790;9.198;2023-08-31T04:49:36;133.90;;;62.10;;
13083;SDS011;6608;48.790;9.198;2023-08-31T04:52:02;134.23;;;60.43;;
13083;SDS011;6608;48.790;9.198;2023-08-31T04:54:28;132.10;;;60.57;;
13083;SDS011;6608;48.790;9.198;2023-08-31T04:56:55;130.27;;;60.53;;
13083;SDS011;6608;48.790;9.198;2023-08-31T04:59:21;130.60;;;60.87;;
13083;SDS011;6608;48.790;9.198;2023-08-31T05:01:48;129.30;;;59.97;;
13083;SDS011;6608;48.790;9.198;2023-08-31T05:04:14;133.77;;;61.53;;
13083;SDS011;6608;48.790;9.198;2023-08-31T05:06:42;132.43;;;61.13;;
13083;SDS011;6608;48.790;9.198;2023-08-31T05:09:08;133.27;;;60.97;;
13083;SDS011;6608;48.790;9.198;2023-08-31T05:11:35;130.73;;;60.83;;
13083;SDS011;6608;48.790;9.198;2023-08-31T05:14:01;133.63;;;60.47;;
13083;SDS011;6608;48.790;9.198;2023-08-31T05:16:28;131.20;;;60.30;;
13083;SDS011;6608;48.790;9.198;2023-08-31T05:18:55;133.27;;;62.27;;
13083;SDS011;6608;48.790;9.198;2023-08-31T05:21:21;133.53;;;61.40;;
13083;SDS011;6608;48.790;9.198;2023-08-31T05:23:49;129.90;;;60.90;;
13083;SDS011;6608;48.790;9.198;2023-08-31T05:26:15;132.33;;;61.20;;
13083;SDS011;6608;48.790;9.198;2023-08-31T05:28:42;135.27;;;61.50;;
13083;SDS011;6608;48.790;9.198;2023-08-31T05:31:08;133.03;;;61.77;;
13083;SDS011;6608;48.790;9.198;2023-08-31T05:33:34;131.57;;;60.23;;
13083;SDS011;6608;48.790;9.198;2023-08-31T05:36:01;134.40;;;60.90;;
13083;SDS011;6608;48.790;9.198;2023-08-31T05:38:29;132.53;;;61.17;;
13083;SDS011;6608;48.790;9.198;2023-08-31T05:41:04;133.83;;;60.77;;
13083;SDS011;6608;48.790;9.198;2023-08-31T05:43:31;131.10;;;60.93;;
13083;SDS011;6608;48.790;9.198;2023-08-31T05:45:57;133.50;;;60.73;;
13083;SDS011;6608;48.790;9.198;2023-08-31T05:48:24;138.53;;;62.10;;
13083;SDS011;6608;48.790;9.198;2023-08-31T05:50:50;136.20;;;60.97;;
13083;SDS011;6608;48.790;9.198;2023-08-31T05:53:16;140.70;;;61.43;;
13083;SDS011;6608;48.790;9.198;2023-08-31T05:55:43;128.67;;;58.80;;
13083;SDS011;6608;48.790;9.198;2023-08-31T05:58:11;131.93;;;61.40;;
13083;SDS011;6608;48.790;9.198;2023-08-31T06:00:37;134.67;;;62.33;;
13083;SDS011;6608;48.790;9.198;2023-08-31T06:03:04;135.17;;;61.00;;
13083;SDS011;6608;48.790;9.198;2023-08-31T06:05:31;134.20;;;62.23;;
13083;SDS011;6608;48.790;9.198;2023-08-31T06:07:57;136.03;;;63.87;;
13083;SDS011;6608;48.790;9.198;2023-08-31T06:10:24;132.10;;;61.53;;
13083;SDS011;6608;48.790;9.198;2023-08-31T06:12:50;135.17;;;63.37;;
13083;SDS011;6608;48.790;9.198;2023-08-31T06:15:18;130.47;;;60.70;;
13083;SDS011;6608;48.790;9.198;2023-08-31T06:17:45;136.90;;;63.20;;
13083;SDS011;6608;48.790;9.198;2023-08-31T06:20:11;135.10;;;62.07;;
13083;SDS011;6608;48.790;9.198;2023-08-31T06:22:37;133.50;;;61.87;;
13083;SDS011;6608;48.790;9.198;2023-08-31T06:25:04;132.43;;;61.23;;
13083;SDS011;6608;48.790;9.198;2023-08-31T06:27:31;135.30;;;62.53;;
13083;SDS011;6608;48.790;9.198;2023-08-31T06:29:58;134.70;;;62.17;;
13083;SDS011;6608;48.790;9.198;2023-08-31T06:32:26;132.93;;;62.07;;
13083;SDS011;6608;48.790;9.198;2023-08-31T06:34:52;137.10;;;63.93;;
13083;SDS011;6608;48.790;9.198;2023-08-31T06:37:19;134.73;;;62.20;;
13083;SDS011;6608;48.790;9.198;2023-08-31T06:39:46;135.30;;;62.90;;
13083;SDS011;6608;48.790;9.198;2023-08-31T06:42:12;134.70;;;62.30;;
13083;SDS011;6608;48.790;9.198;2023-08-31T06:44:38;140.87;;;61.87;;
13083;SDS011;6608;48.790;9.198;2023-08-31T06:47:05;136.53;;;63.17;;
13083;SDS011;6608;48.790;9.198;2023-08-31T06:49:33;136.37;;;62.80;;
13083;SDS011;6608;48.790;9.198;2023-08-31T06:52:00;133.70;;;60.27;;
13083;SDS011;6608;48.790;9.198;2023-08-31T06:54:27;134.27;;;62.23;;
13083;SDS011;6608;48.790;9.198;2023-08-31T06:56:54;135.07;;;61.03;;
13083;SDS011;6608;48.790;9.198;2023-08-31T06:59:20;144.00;;;63.63;;
13083;SDS011;6608;48.790;9.198;2023-08-31T07:01:47;142.00;;;67.37;;
13083;SDS011;6608;48.790;9.198;2023-08-31T07:04:13;137.03;;;62.23;;
13083;SDS011;6608;48.790;9.198;2023-08-31T07:06:41;137.87;;;63.17;;
13083;SDS011;6608;48.790;9.198;2023-08-31T07:09:08;140.17;;;65.53;;
13083;SDS011;6608;48.790;9.198;2023-08-31T07:11:35;140.63;;;63.43;;
13083;SDS011;6608;48.790;9.198;2023-08-31T07:14:01;139.20;;;63.17;;
13083;SDS011;6608;48.790;9.198;2023-08-31T07:16:28;140.07;;;63.23;;
13083;SDS011;6608;48.790;9.198;2023-08-31T07:18:54;141.17;;;61.93;;
13083;SDS011;6608;48.790;9.198;2023-08-31T07:21:21;140.70;;;62.97;;
13083;SDS011;6608;48.790;9.198;2023-08-31T07:23:48;135.93;;;62.57;;
13083;SDS011;6608;48.790;9.198;2023-08-31T07:26:15;139.17;;;62.97;;
13083;SDS011;6608;48.790;9.198;2023-08-31T07:28:42;139.60;;;64.43;;
13083;SDS011;6608;48.790;9.198;2023-08-31T07:31:08;138.13;;;62.93;;
13083;SDS011;6608;48.790;9.198;2023-08-31T07:33:34;138.27;;;63.27;;
13083;SDS011;6608;48.790;9.198;2023-08-31T07:36:01;138.90;;;63.30;;
13083;SDS011;6608;48.790;9.198;2023-08-31T07:38:29;141.43;;;64.97;;
13083;SDS011;6608;48.790;9.198;2023-08-31T07:40:57;146.30;;;62.90;;
13083;SDS011;6608;48.790;9.198;2023-08-31T07:43:24;140.33;;;63.93;;
13083;SDS011;6608;48.790;9.198;2023-08-31T07:45:51;144.43;;;65.77;;
13083;SDS011;6608;48.790;9.198;2023-08-31T07:48:18;144.57;;;65.47;;
13083;SDS011;6608;48.790;9.198;2023-08-31T07:50:44;146.07;;;66.33;;
13083;SDS011;6608;48.790;9.198;2023-08-31T07:53:11;149.57;;;66.77;;
13083;SDS011;6608;48.790;9.198;2023-08-31T07:55:37;146.77;;;65.60;;
13083;SDS011;6608;48.790;9.198;2023-08-31T07:58:05;147.10;;;66.60;;
13083;SDS011;6608;48.790;9.198;2023-08-31T08:00:32;149.43;;;67.80;;
13083;SDS011;6608;48.790;9.198;2023-08-31T08:02:58;152.30;;;70.70;;
13083;SDS011;6608;48.790;9.198;2023-08-31T08:05:25;149.33;;;67.87;;
13083;SDS011;6608;48.790;9.198;2023-08-31T08:07:52;149.20;;;68.77;;
13083;SDS011;6608;48.790;9.198;2023-08-31T08:10:19;150.77;;;68.77;;
13083;SDS011;6608;48.790;9.198;2023-08-31T08:12:45;151.87;;;69.93;;
13083;SDS011;6608;48.790;9.198;2023-08-31T08:15:13;152.57;;;71.47;;
13083;SDS011;6608;48.790;9.198;2023-08-31T08:17:40;157.05;;;74.85;;
13083;SDS011;6608;48.790;9.198;2023-08-31T08:20:07;158.88;;;75.38;;
13083;SDS011;6608;48.790;9.198;2023-08-31T08:22:34;160.82;;;76.47;;
13083;SDS011;6608;48.790;9.198;2023-08-31T08:25:01;149.30;;;69.47;;
13083;SDS011;6608;48.790;9.198;2023-08-31T08:27:27;157.27;;;73.90;;
13083;SDS011;6608;48.790;9.198;2023-08-31T08:29:54;150.43;;;69.30;;
13083;SDS011;6608;48.790;9.198;2023-08-31T08:32:22;149.93;;;68.47;;
13083;SDS011;6608;48.790;9.198;2023-08-31T08:34:49;152.00;;;69.37;;
13083;SDS011;6608;48.790;9.198;2023-08-31T08:37:16;149.37;;;67.13;;
13083;SDS011;6608;48.790;9.198;2023-08-31T08:39:42;149.57;;;67.33;;
13083;SDS011;6608;48.790;9.198;2023-08-31T08:42:09;149.97;;;67.20;;
13083;SDS011;6608;48.790;9.198;2023-08-31T08:44:38;147.60;;;66.20;;
13083;SDS011;6608;48.790;9.198;2023-08-31T08:47:05;148.30;;;67.30;;
13083;SDS011;6608;48.790;9.198;2023-08-31T08:49:34;150.37;;;67.73;;
13083;SDS011;6608;48.790;9.198;2023-08-31T08:52:01;151.43;;;68.47;;
13083;SDS011;6608;48.790;9.198;2023-08-31T08:54:28;150.87;;;67.53;;
13083;SDS011;6608;48.790;9.198;2023-08-31T08:56:54;146.40;;;66.73;;
13083;SDS011;6608;48.790;9.198;2023-08-31T08:59:21;150.53;;;67.10;;
13083;SDS011;6608;48.790;9.198;2023-08-31T09:01:48;150.13;;;68.73;;
13083;SDS011;6608;48.790;9.198;2023-08-31T09:04:14;151.10;;;69.47;;
13083;SDS011;6608;48.790;9.198;2023-08-31T09:06:42;147.60;;;67.17;;
13083;SDS011;6608;48.790;9.198;2023-08-31T09:09:09;149.13;;;67.30;;
13083;SDS011;6608;48.790;9.198;2023-08-31T09:11:35;149.40;;;67.60;;
13083;SDS011;6608;48.790;9.198;2023-08-31T09:14:13;149.97;;;68.37;;
13083;SDS011;6608;48.790;9.198;2023-08-31T09:16:39;147.30;;;67.57;;
13083;SDS011;6608;48.790;9.198;2023-08-31T09:19:17;148.47;;;69.03;;
13083;SDS011;6608;48.790;9.198;2023-08-31T09:21:45;176.67;;;91.10;;
13083;SDS011;6608;48.790;9.198;2023-08-31T09:24:12;150.03;;;69.70;;
13083;SDS011;6608;48.790;9.198;2023-08-31T09:26:39;149.83;;;68.27;;
13083;SDS011;6608;48.790;9.198;2023-08-31T09:29:05;146.77;;;67.50;;
13083;SDS011;6608;48.790;9.198;2023-08-31T09:31:32;151.37;;;70.10;;
13083;SDS011;6608;48.790;9.198;2023-08-31T09:44:18;151.97;;;68.97;;
13083;SDS011;6608;48.790;9.198;2023-08-31T09:46:45;149.53;;;68.33;;
13083;SDS011;6608;48.790;9.198;2023-08-31T09:49:13;150.03;;;70.13;;
13083;SDS011;6608;48.790;9.198;2023-08-31T09:51:39;146.53;;;67.77;;
13083;SDS011;6608;48.790;9.198;2023-08-31T09:54:07;154.65;;;73.28;;
13083;SDS011;6608;48.790;9.198;2023-08-31T09:56:35;150.33;;;70.40;;
13083;SDS011;6608;48.790;9.198;2023-08-31T09:59:02;154.07;;;69.43;;
13083;SDS011;6608;48.790;9.198;2023-08-31T10:01:30;148.60;;;68.80;;
13083;SDS011;6608;48.790;9.198;2023-08-31T10:03:56;148.97;;;68.90;;
13083;SDS011;6608;48.790;9.198;2023-08-31T10:06:23;151.30;;;69.57;;
13083;SDS011;6608;48.790;9.198;2023-08-31T10:08:50;150.30;;;70.00;;
13083;SDS011;6608;48.790;9.198;2023-08-31T10:11:17;147.87;;;67.97;;
13083;SDS011;6608;48.790;9.198;2023-08-31T10:13:43;150.93;;;71.10;;
13083;SDS011;6608;48.790;9.198;2023-08-31T10:16:10;149.63;;;69.63;;
13083;SDS011;6608;48.790;9.198;2023-08-31T10:18:38;150.63;;;70.03;;
13083;SDS011;6608;48.790;9.198;2023-08-31T10:21:05;150.17;;;70.27;;
13083;SDS011;6608;48.790;9.198;2023-08-31T10:23:31;149.73;;;69.30;;
13083;SDS011;6608;48.790;9.198;2023-08-31T10:26:04;151.50;;;70.30;;
13083;SDS011;6608;48.790;9.198;2023-08-31T10:28:30;150.43;;;69.97;;
13083;SDS011;6608;48.790;9.198;2023-08-31T10:31:04;150.57;;;69.23;;
13083;SDS011;6608;48.790;9.198;2023-08-31T10:33:31;150.30;;;69.43;;
13083;SDS011;6608;48.790;9.198;2023-08-31T10:35:59;151.43;;;69.47;;
13083;SDS011;6608;48.790;9.198;2023-08-31T10:38:27;150.43;;;68.50;;
13083;SDS011;6608;48.790;9.198;2023-08-31T10:41:02;150.50;;;68.50;;
13083;SDS011;6608;48.790;9.198;2023-08-31T10:43:42;151.57;;;69.93;;
13083;SDS011;6608;48.790;9.198;2023-08-31T10:46:14;149.77;;;69.03;;
13083;SDS011;6608;48.790;9.198;2023-08-31T10:48:50;148.53;;;68.33;;
13083;SDS011;6608;48.790;9.198;2023-08-31T10:51:18;150.30;;;68.67;;
13083;SDS011;6608;48.790;9.198;2023-08-31T10:53:47;149.70;;;68.17;;
13083;SDS011;6608;48.790;9.198;2023-08-31T10:56:15;152.03;;;68.23;;
13083;SDS011;6608;48.790;9.198;2023-08-31T10:58:41;150.20;;;69.20;;
13083;SDS011;6608;48.790;9.198;2023-08-31T11:01:11;153.87;;;69.27;;
13083;SDS011;6608;48.790;9.198;2023-08-31T11:06:21;150.63;;;68.13;;
13083;SDS011;6608;48.790;9.198;2023-08-31T11:08:50;149.57;;;67.97;;
13083;SDS011;6608;48.790;9.198;2023-08-31T11:11:19;152.10;;;68.30;;
13083;SDS011;6608;48.790;9.198;2023-08-31T11:13:45;150.17;;;67.17;;
13083;SDS011;6608;48.790;9.198;2023-08-31T11:16:12;151.33;;;70.43;;
13083;SDS011;6608;48.790;9.198;2023-08-31T11:18:38;150.73;;;67.77;;
13083;SDS011;6608;48.790;9.198;2023-08-31T11:21:04;154.40;;;68.07;;
13083;SDS011;6608;48.790;9.198;2023-08-31T11:23:33;151.20;;;67.67;;
13083;SDS011;6608;48.790;9.198;2023-08-31T11:26:00;150.03;;;67.60;;
13083;SDS011;6608;48.790;9.198;2023-08-31T11:28:32;149.70;;;68.47;;
13083;SDS011;6608;48.790;9.198;2023-08-31T11:30:58;149.87;;;68.40;;
13083;SDS011;6608;48.790;9.198;2023-08-31T11:33:27;161.80;;;78.20;;
13083;SDS011;6608;48.790;9.198;2023-08-31T11:35:57;147.57;;;67.80;;
13083;SDS011;6608;48.790;9.198;2023-08-31T11:38:24;147.10;;;67.67;;
13083;SDS011;6608;48.790;9.198;2023-08-31T11:40:56;149.47;;;68.80;;
13083;SDS011;6608;48.790;9.198;2023-08-31T11:43:23;148.27;;;68.10;;
13083;SDS011;6608;48.790;9.198;2023-08-31T11:45:49;150.33;;;68.23;;
13083;SDS011;6608;48.790;9.198;2023-08-31T11:48:16;149.53;;;68.87;;
13083;SDS011;6608;48.790;9.198;2023-08-31T11:50:43;150.70;;;68.43;;
13083;SDS011;6608;48.790;9.198;2023-08-31T11:53:09;153.40;;;67.93;;
13083;SDS011;6608;48.790;9.198;2023-08-31T11:55:36;147.93;;;68.23;;
13083;SDS011;6608;48.790;9.198;2023-08-31T11:58:03;149.13;;;67.60;;
13083;SDS011;6608;48.790;9.198;2023-08-31T12:00:33;151.50;;;68.47;;
13083;SDS011;6608;48.790;9.198;2023-08-31T12:03:00;150.30;;;67.90;;
13083;SDS011;6608;48.790;9.198;2023-08-31T12:05:29;152.60;;;68.50;;
13083;SDS011;6608;48.790;9.198;2023-08-31T12:08:10;149.53;;;68.53;;
13083;SDS011;6608;48.790;9.198;2023-08-31T12:10:39;152.83;;;69.53;;
13083;SDS011;6608;48.790;9.198;2023-08-31T12:13:11;149.67;;;68.57;;
13083;SDS011;6608;48.790;9.198;2023-08-31T12:15:38;149.90;;;67.67;;
13083;SDS011;6608;48.790;9.198;2023-08-31T12:18:07;150.77;;;69.80;;
13083;SDS011;6608;48.790;9.198;2023-08-31T12:20:34;159.40;;;76.93;;
13083;SDS011;6608;48.790;9.198;2023-08-31T12:23:06;150.10;;;68.20;;
13083;SDS011;6608;48.790;9.198;2023-08-31T12:25:33;154.80;;;71.30;;
13083;SDS011;6608;48.790;9.198;2023-08-31T12:27:59;152.17;;;68.80;;
13083;SDS011;6608;48.790;9.198;2023-08-31T12:30:27;150.53;;;68.27;;
13083;SDS011;6608;48.790;9.198;2023-08-31T12:32:53;151.83;;;68.80;;
13083;SDS011;6608;48.790;9.198;2023-08-31T12:35:20;149.80;;;70.43;;
13083;SDS011;6608;48.790;9.198;2023-08-31T12:37:47;151.27;;;68.83;;
13083;SDS011;6608;48.790;9.198;2023-08-31T12:40:13;161.40;;;75.90;;
13083;SDS011;6608;48.790;9.198;2023-08-31T12:42:40;151.10;;;70.17;;
13083;SDS011;6608;48.790;9.198;2023-08-31T12:45:07;152.07;;;69.53;;
13083;SDS011;6608;48.790;9.198;2023-08-31T12:47:35;150.03;;;69.87;;
13083;SDS011;6608;48.790;9.198;2023-08-31T12:50:02;150.37;;;68.83;;
13083;SDS011;6608;48.790;9.198;2023-08-31T12:52:29;147.17;;;66.73;;
13083;SDS011;6608;48.790;9.198;2023-08-31T12:54:55;153.97;;;68.67;;
13083;SDS011;6608;48.790;9.198;2023-08-31T12:57:22;151.07;;;69.30;;
13083;SDS011;6608;48.790;9.198;2023-08-31T12:59:48;149.47;;;68.80;;
13083;SDS011;6608;48.790;9.198;2023-08-31T13:02:14;149.10;;;68.13;;
13083;SDS011;6608;48.790;9.198;2023-08-31T13:04:42;150.47;;;68.63;;
13083;SDS011;6608;48.790;9.198;2023-08-31T13:07:09;150.07;;;69.60;;
13083;SDS011;6608;48.790;9.198;2023-08-31T13:09:35;159.27;;;74.93;;
13083;SDS011;6608;48.790;9.198;2023-08-31T13:12:02;147.97;;;68.37;;
13083;SDS011;6608;48.790;9.198;2023-08-31T13:14:28;149.00;;;67.40;;
13083;SDS011;6608;48.790;9.198;2023-08-31T13:16:55;148.80;;;68.27;;
13083;SDS011;6608;48.790;9.198;2023-08-31T13:19:21;148.77;;;68.80;;
13083;SDS011;6608;48.790;9.198;2023-08-31T13:21:49;149.77;;;69.00;;
13083;SDS011;6608;48.790;9.198;2023-08-31T13:24:15;149.47;;;68.97;;
13083;SDS011;6608;48.790;9.198;2023-08-31T13:26:42;150.30;;;67.53;;
13083;SDS011;6608;48.790;9.198;2023-08-31T13:29:12;150.40;;;68.37;;
13083;SDS011;6608;48.790;9.198;2023-08-31T13:31:38;148.03;;;67.97;;
13083;SDS011;6608;48.790;9.198;2023-08-31T13:34:05;148.70;;;67.53;;
13083;SDS011;6608;48.790;9.198;2023-08-31T13:36:32;148.57;;;67.67;;
13083;SDS011;6608;48.790;9.198;2023-08-31T13:39:00;149.50;;;68.00;;
13083;SDS011;6608;48.790;9.198;2023-08-31T13:41:27;147.80;;;68.77;;
13083;SDS011;6608;48.790;9.198;2023-08-31T13:43:54;148.63;;;67.70;;
13083;SDS011;6608;48.790;9.198;2023-08-31T13:46:20;150.17;;;68.50;;
13083;SDS011;6608;48.790;9.198;2023-08-31T13:48:46;148.90;;;67.23;;
13083;SDS011;6608;48.790;9.198;2023-08-31T13:51:14;146.93;;;68.23;;
13083;SDS011;6608;48.790;9.198;2023-08-31T13:53:40;149.37;;;68.80;;
13083;SDS011;6608;48.790;9.198;2023-08-31T13:56:08;147.87;;;67.10;;
13083;SDS011;6608;48.790;9.198;2023-08-31T13:58:35;146.07;;;66.30;;
13083;SDS011;6608;48.790;9.198;2023-08-31T14:01:01;150.87;;;67.93;;
13083;SDS011;6608;48.790;9.198;2023-08-31T14:03:28;147.37;;;67.67;;
13083;SDS011;6608;48.790;9.198;2023-08-31T14:05:54;147.60;;;67.40;;
13083;SDS011;6608;48.790;9.198;2023-08-31T14:08:21;147.60;;;67.67;;
13083;SDS011;6608;48.790;9.198;2023-08-31T14:10:47;151.70;;;69.50;;
13083;SDS011;6608;48.790;9.198;2023-08-31T14:13:15;153.03;;;67.60;;
13083;SDS011;6608;48.790;9.198;2023-08-31T14:15:44;176.03;;;89.40;;
13083;SDS011;6608;48.790;9.198;2023-08-31T14:18:11;154.30;;;72.23;;
13083;SDS011;6608;48.790;9.198;2023-08-31T14:20:38;149.33;;;68.20;;
13083;SDS011;6608;48.790;9.198;2023-08-31T14:23:04;151.50;;;67.70;;
13083;SDS011;6608;48.790;9.198;2023-08-31T14:25:33;151.23;;;68.63;;
13083;SDS011;6608;48.790;9.198;2023-08-31T14:27:59;150.63;;;68.23;;
13083;SDS011;6608;48.790;9.198;2023-08-31T14:30:27;148.93;;;67.57;;
13083;SDS011;6608;48.790;9.198;2023-08-31T14:32:54;148.67;;;67.90;;
13083;SDS011;6608;48.790;9.198;2023-08-31T14:35:20;146.40;;;66.97;;